• Join FlightAware (Why Join?)
  • Login
  • US Flag 
Trick or treat! (Boo!!) 
08:59AM EDT


 

Airport Tracker/Info


-or-


 

Live Flight TrackerFlight Track Log ✈ N21921 ✈ 15-Oct-2013 ✈ 1H0 - KAKR

Flight Track Log - Related Links

Times and Time Zones

All times are in EDT time to prevent confusion due to time zone crossing. See the N21921 flight status page for this flight to view local times or setup timezone preferences in your user account.

Time Position Orientation Groundspeed Altitude Reporting Facility
EDT Latitude Longitude Course Direction KTS MPH feet Rate Location/Type
06:19PM 38.8833 -90.4667 90° East 181 208 1,800  Level Gateway (St. Louis) TRACON
06:20PM 38.9333 -90.4500 15° North 176 203 2,100 240 Climbing Gateway (St. Louis) TRACON
06:21PM 38.9519 -90.4278 43° Northeast 173 199 2,300 360 Climbing Kansas City Center
06:22PM 38.9822 -90.3778 52° Northeast 174 200 2,800 360 Climbing Kansas City Center
06:23PM 39.0097 -90.3247 56° Northeast 176 203 3,100 360 Climbing Kansas City Center
06:24PM 39.0356 -90.2661 60° Northeast 182 209 3,600 660 Climbing Kansas City Center
06:25PM 38.8601 -90.0660 90° East  Level Estimated
06:25PM 39.0672 -90.1986 59° Northeast 184 212 4,500  Level Kansas City Center
06:26PM 39.0928 -90.1417 60° Northeast 183 211 5,200 600 Climbing Kansas City Center
06:27PM 39.1203 -90.0853 58° Northeast 185 213 5,800 480 Climbing Kansas City Center
06:28PM 39.1503 -90.0308 55° Northeast 187 215 6,300 540 Climbing Kansas City Center
06:29PM 39.1803 -89.9661 59° Northeast 186 214 7,000 840 Climbing Kansas City Center
06:30PM 39.2069 -89.9186 54° Northeast 188 216 8,100 840 Climbing Kansas City Center
06:31PM 39.2403 -89.8544 56° Northeast 181 208 8,800 720 Climbing Kansas City Center
06:32PM 39.2711 -89.7950 56° Northeast 194 223 9,600 720 Climbing Kansas City Center
06:33PM 39.2994 -89.7344 59° Northeast 197 227 10,400 660 Climbing Kansas City Center
06:34PM 39.3300 -89.6736 57° Northeast 200 230 11,000 600 Climbing Kansas City Center
06:35PM 39.3581 -89.6094 60° Northeast 204 235 11,700 600 Climbing Kansas City Center
06:36PM 39.3867 -89.5433 61° Northeast 208 239 12,300 600 Climbing Kansas City Center
06:37PM 39.4172 -89.4758 60° Northeast 214 246 13,000 720 Climbing Kansas City Center
06:38PM 39.4567 -89.3989 56° Northeast 216 249 13,800 720 Climbing Kansas City Center
06:39PM 39.4753 -89.3256 72° East 214 246 14,500 540 Climbing Kansas City Center
06:40PM 39.4958 -89.2453 72° East 220 253 15,000 240 Climbing Kansas City Center
06:41PM 39.5153 -89.1669 72° East 226 260 15,100  Climbing Kansas City Center
06:42PM 39.5350 -89.0783 74° East 247 284 15,000  Descending Kansas City Center
06:43PM 39.5517 -88.9892 76° East 254 292 15,100  Climbing Kansas City Center
06:44PM 39.5722 -88.8983 74° East 259 298 15,000  Descending Kansas City Center
06:45PM 39.5947 -88.8092 72° East 260 299 15,100  Climbing Kansas City Center
06:46PM 39.6181 -88.7022 74° East 259 298 15,000 -60 Descending Kansas City Center
06:48PM 39.6353 -88.6122 76° East 259 298 15,000  Level Kansas City Center
06:49PM 39.6578 -88.5139 73° East 259 298 15,000  Level Kansas City Center
06:50PM 39.6747 -88.4342 75° East 257 296 15,100  Climbing Kansas City Center
06:51PM 39.6953 -88.3444 73° East 258 297 15,000  Descending Kansas City Center
06:52PM 39.7139 -88.2561 75° East 257 296 15,100  Climbing Kansas City Center
06:53PM 39.7350 -88.1581 74° East 254 292 15,100  Level Kansas City Center
06:54PM 39.7547 -88.0681 74° East 255 293 15,100 -60 Level Kansas City Center
06:55PM 39.7739 -87.9803 74° East 254 292 15,000  Descending Kansas City Center
06:56PM 39.7922 -87.8911 75° East 254 292 15,100  Climbing Kansas City Center
06:57PM 39.8175 -87.7875 72° East 251 289 15,100  Level Kansas City Center
06:58PM 39.8361 -87.6992 75° East 251 289 15,100  Level Kansas City Center
06:59PM 39.8556 -87.6119 74° East 250 288 15,200  Climbing Kansas City Center
07:00PM 39.8756 -87.5225 74° East 253 291 15,100 -60 Descending Kansas City Center
07:01PM 39.9000 -87.4078 74° East 255 293 15,100  Level Indianapolis Center
07:02PM 39.9203 -87.3203 73° East 253 291 15,100  Level Indianapolis Center
07:02PM 39.9231 -87.3031 78° East 253 291 15,100  Level Indianapolis Center
07:04PM 39.9422 -87.2136 74° East 254 292 15,100  Level Indianapolis Center
07:05PM 39.9656 -87.1078 74° East 255 293 15,100  Level Indianapolis Center
07:06PM 39.9864 -87.0197 73° East 254 292 15,200  Climbing Indianapolis Center
07:07PM 40.0092 -86.9333 71° East 253 291 15,100 -120 Descending Indianapolis Center
07:08PM 40.0311 -86.8433 72° East 258 297 15,000  Descending Indianapolis Center
07:09PM 40.0508 -86.7539 74° East 257 296 15,100 60 Climbing Indianapolis Center
07:10PM 40.0686 -86.6639 75° East 256 295 15,200  Climbing Indianapolis Center
07:11PM 40.0872 -86.5747 75° East 255 293 15,100 -120 Descending Indianapolis Center
07:12PM 40.1053 -86.4842 75° East 256 295 15,000 -120 Descending Indianapolis Center
07:13PM 40.1278 -86.3756 75° East 258 297 14,900  Descending Indianapolis Center
07:14PM 40.1442 -86.3058 73° East 255 293 15,100 60 Climbing Chicago Center
07:15PM 40.1656 -86.2194 72° East 251 289 15,100  Level Chicago Center
07:16PM 40.1911 -86.1164 72° East 249 287 15,100  Level Chicago Center
07:17PM 40.2106 -86.0275 74° East 253 291 15,100  Level Chicago Center
07:18PM 40.2319 -85.9419 72° East 249 287 15,100  Level Chicago Center
07:19PM 40.2528 -85.8544 73° East 250 288 15,100 -60 Level Chicago Center
07:20PM 40.2681 -85.7650 77° East 252 290 15,000 -60 Descending Chicago Center
07:21PM 40.2839 -85.6744 77° East 255 293 15,000  Level Chicago Center
07:22PM 40.3036 -85.5686 76° East 249 287 15,100  Climbing Indianapolis Center
07:23PM 40.3217 -85.4806 75° East 250 288 15,100 -60 Level Indianapolis Center
07:24PM 40.3397 -85.3925 75° East 251 289 15,000 -60 Descending Indianapolis Center
07:25PM 40.3581 -85.3025 75° East 255 293 15,000  Level Indianapolis Center
07:26PM 40.3764 -85.2136 75° East 254 292 15,000  Level Indianapolis Center
07:27PM 40.3944 -85.1258 75° East 251 289 15,100  Climbing Chicago Center
07:28PM 40.4106 -85.0178 79° East 251 289 15,100 -60 Level Indianapolis Center
07:29PM 40.4233 -84.9311 79° East 246 283 15,000  Descending Indianapolis Center
07:30PM 40.4414 -84.8464 74° East 249 287 15,100 60 Climbing Indianapolis Center
07:31PM 40.4611 -84.7592 73° East 252 290 15,200  Climbing Indianapolis Center
07:32PM 40.4781 -84.6700 76° East 253 291 15,100 -60 Descending Indianapolis Center
07:33PM 40.4964 -84.5789 75° East 258 297 15,100  Level Indianapolis Center
07:34PM 40.5208 -84.4744 73° East 251 289 15,100 -60 Level Indianapolis Center
07:35PM 40.5383 -84.3867 75° East 249 287 15,000 -60 Descending Indianapolis Center
07:36PM 40.5553 -84.2994 76° East 247 284 15,000  Level Indianapolis Center
07:37PM 40.5708 -84.2117 77° East 248 285 15,000  Level Indianapolis Center
07:38PM 40.5867 -84.1261 76° East 244 281 15,000 -60 Level Indianapolis Center
07:39PM 40.6008 -84.0397 78° East 243 280 14,900  Descending Indianapolis Center
07:40PM 40.6219 -83.9500 73° East 252 290 15,000  Climbing Indianapolis Center
07:42PM 40.6369 -83.8594 78° East 253 291 14,900  Descending Indianapolis Center
07:43PM 40.6514 -83.7703 78° East 250 288 15,000  Climbing Indianapolis Center
07:44PM 40.6700 -83.6631 77° East 251 289 15,000  Level Indianapolis Center
07:45PM 40.6878 -83.5750 75° East 249 287 15,000  Level Indianapolis Center
07:46PM 40.7036 -83.4883 76° East 245 282 15,000  Level Indianapolis Center
07:47PM 40.7200 -83.4003 76° East 246 283 15,000  Level Indianapolis Center
07:48PM 40.7353 -83.3114 77° East 247 284 15,100  Climbing Indianapolis Center
07:49PM 40.7497 -83.2244 78° East 245 282 15,000 -120 Descending Indianapolis Center
07:50PM 40.7625 -83.1381 79° East 244 281 14,900  Descending Indianapolis Center
07:51PM 40.7733 -83.0497 81° East 242 278 15,000  Climbing Indianapolis Center
07:52PM 40.7906 -82.9478 77° East 243 280 15,000 -60 Level Indianapolis Center
07:53PM 40.8058 -82.8614 77° East 241 277 14,900  Descending Indianapolis Center
07:54PM 40.8247 -82.7772 73° East 240 276 15,000 60 Climbing Indianapolis Center
07:55PM 40.8400 -82.6903 77° East 240 276 15,100 -180 Climbing Indianapolis Center
07:56PM 40.8542 -82.6017 78° East 244 281 14,700 -600 Descending Indianapolis Center
07:57PM 40.8678 -82.5058 79° East 260 299 14,000 -600 Descending Indianapolis Center
07:58PM 40.8783 -82.4247 80° East 266 306 13,600 -660 Descending Cleveland Center
07:58PM 40.8844 -82.3856 78° East 264 304 13,200 -720 Descending Cleveland Center
07:59PM 40.8931 -82.3289 79° East 265 305 12,900 -660 Descending Cleveland Center
07:59PM 40.9036 -82.2753 75° East 265 305 12,500 -300 Descending Cleveland Center
08:00PM 40.9086 -82.2347 81° East 261 300 12,600 -240 Climbing Cleveland Center
08:00PM 40.9164 -82.1858 78° East 247 284 12,300 -420 Descending Cleveland Center
08:01PM 40.9219 -82.1442 80° East 252 290 12,200 -420 Descending Cleveland Center
08:01PM 40.9294 -82.0939 79° East 252 290 11,900 -420 Descending Cleveland Center
08:02PM 40.9367 -82.0528 77° East 253 291 11,800 -480 Descending Cleveland Center
08:02PM 40.9456 -82.0108 74° East 256 295 11,500 -600 Descending Cleveland Center
08:03PM 40.9556 -81.9453 79° East 255 293 11,200 -600 Descending Cleveland Center
08:03PM 40.9606 -81.9189 76° East 256 295 10,900 -780 Descending Cleveland Center
08:04PM 40.9714 -81.8533 78° East 255 293 10,400 -1,020 Descending Cleveland Center
08:04PM 40.9753 -81.8272 79° East 253 291 9,900 -1,260 Descending Cleveland Center
08:05PM 40.9861 -81.7603 78° East 257 296 9,100 -1,260 Descending Cleveland Center
08:05PM 40.9911 -81.7244 80° East 265 305 8,500 -1,440 Descending Cleveland Center
08:06PM 41.0031 -81.6403 79° East 261 300 7,300 -1,440 Descending Cleveland Center
08:07PM 41.0122 -81.5694 80° East 263 303 6,100 -2,340 Descending Cleveland Center
08:07PM 41.0136 -81.5256 88° East 272 313 4,700 -540 Descending Cleveland Center
08:08PM 41.0208 -81.4767 79° East 265 305 5,600 1,200 Climbing Cleveland Center